Have a Safe July 4th! 

Flight Track Log - Related Links

Times and Time Zones

All times are in EDT time to prevent confusion due to time zone crossing. See the N517CP flight status page for this flight to view local times or setup timezone preferences in your user account.

Time Position Orientation Groundspeed Altitude Reporting Facility
EDT Latitude Longitude Course Direction KTS MPH feet Rate Location/Type
Tue 11:41:03 AM 26.2108 -97.3381 346° North 144 166 2,000  Level Houston Center
Tue 11:42:28 AM 26.2672 -97.3536 356° North 144 166 3,200 774 Climbing Houston Center
Tue 11:43:07 AM 26.2939 -97.3533 North 148 170 3,600 713 Climbing Houston Center
Tue 11:44:09 AM 26.3350 -97.3556 357° North 147 169 4,400 774 Climbing Houston Center
Tue 11:45:11 AM 26.3792 -97.3578 357° North 147 169 5,200 732 Climbing Houston Center
Tue 11:46:12 AM 26.4200 -97.3606 357° North 148 170 5,900 683 Climbing Houston Center
Tue 11:47:14 AM 26.4606 -97.3628 357° North 146 168 6,600 652 Climbing Houston Center
Tue 11:47:44 AM 26.4808 -97.3642 356° North 144 166 6,900 581 Climbing Houston Center
Tue 11:48:16 AM 26.5025 -97.3658 356° North 141 162 7,200 511 Climbing Houston Center
Tue 11:49:18 AM 26.5431 -97.3681 357° North 145 167 7,700 387 Climbing Houston Center
Tue 11:50:20 AM 26.5883 -97.3697 358° North 149 171 8,000 145 Climbing Houston Center
Tue 11:51:22 AM 26.6358 -97.3728 357° North 167 192 8,000  Level Houston Center
Tue 11:52:24 AM 26.6839 -97.3758 357° North 172 198 8,000  Level Houston Center
Tue 11:53:26 AM 26.7342 -97.3789 357° North 168 193 8,000  Level Houston Center
Tue 11:54:28 AM 26.7833 -97.3811 358° North 174 200 8,000  Level Houston Center
Tue 11:55:30 AM 26.8339 -97.3839 357° North 170 196 8,000  Level Houston Center
Tue 11:56:32 AM 26.8817 -97.3861 358° North 171 197 8,000  Level Houston Center
Tue 11:57:34 AM 26.9306 -97.3903 356° North 174 200 8,000  Level Houston Center
Tue 11:58:36 AM 26.9819 -97.3917 359° North 172 198 8,000  Level Houston Center
Tue 11:59:54 AM 27.0425 -97.3975 355° North 169 194 8,000  Level Houston Center
Tue 12:00:40 PM 27.0792 -97.3972 360° North 167 192 8,000  Level Houston Center
Tue 12:01:42 PM 27.1225 -97.4003 356° North 168 193 8,000  Level Houston Center
Tue 12:02:44 PM 27.1664 -97.4033 356° North 166 191 8,000  Level Houston Center
Tue 12:03:57 PM 27.2308 -97.4069 357° North 168 193 8,000  Level Houston Center
Tue 12:04:52 PM 27.2731 -97.4083 358° North 169 194 8,000  Level Houston Center
Tue 12:05:47 PM 27.3175 -97.4117 356° North 167 192 8,000  Level Houston Center
Tue 12:06:41 PM 27.3581 -97.4156 355° North 167 192 8,000  Level Houston Center
Tue 12:07:43 PM 27.4067 -97.4183 357° North 167 192 8,000  Level Houston Center
Tue 12:08:43 PM 27.4511 -97.4192 359° North 168 193 8,000  Level Houston Center
Tue 12:09:44 PM 27.5019 -97.4217 358° North 168 193 8,000  Level Houston Center
Tue 12:10:44 PM 27.5486 -97.4247 357° North 165 190 8,000  Level Houston Center
Tue 12:11:45 PM 27.5931 -97.4281 356° North 164 189 8,000  Level Houston Center
Tue 12:13:06 PM 27.6503 -97.4303 358° North 165 190 8,000  Level Houston Center
Tue 12:14:08 PM 27.6950 -97.4331 357° North 162 186 8,000  Level Houston Center
Tue 12:14:54 PM 27.7350 -97.4369 355° North 164 189 8,000 226 Level Houston Center
Tue 12:15:54 PM 27.7814 -97.4375 359° North 152 175 8,400 234 Climbing Houston Center
Tue 12:17:02 PM 27.8281 -97.4406 357° North 157 181 8,500 47 Climbing Houston Center
Tue 12:18:02 PM 27.8725 -97.4439 356° North 166 191 8,500  Level Houston Center
Tue 12:18:57 PM 27.9172 -97.4472 356° North 166 191 8,500  Level Houston Center
Tue 12:20:20 PM 27.9756 -97.4481 359° North 167 192 8,500  Level Houston Center
Tue 12:21:22 PM 28.0231 -97.4506 357° North 168 193 8,500  Level Houston Center
Tue 12:22:25 PM 28.0775 -97.4536 357° North 164 189 8,500  Level Houston Center
Tue 12:23:27 PM 28.1219 -97.4550 358° North 164 189 8,500  Level Houston Center
Tue 12:24:29 PM 28.1692 -97.4567 358° North 163 188 8,500  Level Houston Center
Tue 12:25:31 PM 28.2161 -97.4578 359° North 167 192 8,500  Level Houston Center
Tue 12:26:33 PM 28.2636 -97.4567 North 169 194 8,500  Level Houston Center
Tue 12:27:35 PM 28.3100 -97.4564 360° North 168 193 8,500  Level Houston Center
Tue 12:28:38 PM 28.3647 -97.4536 North 164 189 8,500  Level Houston Center
Tue 12:29:39 PM 28.4122 -97.4539 360° North 167 192 8,500  Level Houston Center
Tue 12:30:41 PM 28.4600 -97.4536 360° North 170 196 8,500  Level Houston Center
Tue 12:31:44 PM 28.5081 -97.4547 359° North 171 197 8,500  Level Houston Center
Tue 12:32:46 PM 28.5553 -97.4550 360° North 170 196 8,500  Level Houston Center
Tue 12:33:48 PM 28.6031 -97.4569 358° North 170 196 8,500  Level Houston Center
Tue 12:34:50 PM 28.6578 -97.4547 North 167 192 8,500  Level Houston Center
Tue 12:35:52 PM 28.7044 -97.4456 10° North 167 192 8,500 48 Level Houston Center
Tue 12:36:54 PM 28.7525 -97.4444 North 170 196 8,600 48 Climbing Houston Center
Tue 12:37:56 PM 28.8000 -97.4456 359° North 170 196 8,600  Level Houston Center
Tue 12:38:58 PM 28.8461 -97.4436 North 167 192 8,600 -48 Level Houston Center
Tue 12:40:01 PM 28.8931 -97.4425 North 168 193 8,500 -48 Descending Houston Center
Tue 12:41:03 PM 28.9486 -97.4414 North 167 192 8,500  Level Houston Center
Tue 12:42:05 PM 28.9950 -97.4403 North 166 191 8,500  Level Houston Center
Tue 12:43:07 PM 29.0425 -97.4403 360° North 168 193 8,500  Level Houston Center
Tue 12:44:09 PM 29.0886 -97.4381 North 166 191 8,500  Level Houston Center
Tue 12:45:11 PM 29.1350 -97.4364 North 167 192 8,500  Level Houston Center
Tue 12:46:14 PM 29.1817 -97.4364 360° North 167 192 8,500  Level Houston Center
Tue 12:47:15 PM 29.2383 -97.4358 360° North 169 194 8,500  Level Houston Center
Tue 12:48:17 PM 29.2869 -97.4339 North 172 198 8,500  Level Houston Center
Tue 12:49:19 PM 29.3339 -97.4319 North 171 197 8,500  Level Houston Center
Tue 12:50:22 PM 29.3814 -97.4308 North 170 196 8,500  Level Houston Center
Tue 12:51:24 PM 29.4294 -97.4297 North 171 197 8,500  Level Houston Center
Tue 12:52:26 PM 29.4761 -97.4303 359° North 168 193 8,500  Level Houston Center
Tue 12:53:28 PM 29.5336 -97.4278 North 170 196 8,500  Level Houston Center
Tue 12:54:30 PM 29.5817 -97.4278 360° North 172 198 8,500  Level Houston Center
Tue 12:55:32 PM 29.6294 -97.4261 North 172 198 8,500  Level Houston Center
Tue 12:56:34 PM 29.6792 -97.4236 North 177 204 8,500 -242 Level Houston Center
Tue 12:57:36 PM 29.7292 -97.4219 North 178 205 8,000 -484 Descending Houston Center
Tue 12:58:38 PM 29.7797 -97.4222 360° North 180 207 7,500 -484 Descending Houston Center
Tue 12:59:40 PM 29.8317 -97.4217 North 185 213 7,000 -532 Descending Houston Center
Tue 01:00:42 PM 29.8917 -97.4217 360° North 181 208 6,400 -581 Descending Houston Center
Tue 01:01:44 PM 29.9439 -97.4178 North 184 212 5,800 -629 Descending Houston Center
Tue 01:02:46 PM 29.9958 -97.4211 357° North 186 214 5,100 -629 Descending Houston Center
Tue 01:03:48 PM 30.0453 -97.4275 354° North 182 209 4,500 -581 Descending Houston Center
Tue 01:04:50 PM 30.0969 -97.4328 355° North 179 206 3,900 -532 Descending Houston Center
Tue 01:05:52 PM 30.1467 -97.4369 356° North 177 204 3,400 -435 Descending Houston Center
Tue 01:06:54 PM 30.1969 -97.4422 355° North 179 206 3,000 -439 Descending Houston Center
Tue 01:07:55 PM 30.2511 -97.4461 356° North 175 201 2,500 -492 Descending Houston Center

Login

Don't have an account? Register now (free) for customized features, flight alerts, and more!